Time;durP1;ratioP1;P1;durP2;ratioP2;P2;SDS_P1;SDS_P2;PMS_P1;PMS_P2;Temp;Humidity;BMP_temperature;BMP_pressure;BME280_temperature;BME280_humidity;BME280_pressure;Samples;Min_cycle;Max_cycle;Signal;HPM_P1;HPM_P2
2022/07/10 00:00:44;;;;;;;5.53;2.20;;;;;;;;;;5088817;28;20176;-51
2022/07/10 00:03:10;;;;;;;6.27;2.53;;;;;;;;;;5089292;28;20233;-51
2022/07/10 00:05:37;;;;;;;4.00;1.90;;;;;;;;;;5085808;28;20204;-51
2022/07/10 00:08:03;;;;;;;3.67;2.10;;;;;;;;;;5067374;28;20223;-51
2022/07/10 00:10:30;;;;;;;4.43;2.03;;;;;;;;;;5068966;28;20161;-51
2022/07/10 00:12:57;;;;;;;3.57;1.87;;;;;;;;;;5050834;28;20260;-51
2022/07/10 00:15:23;;;;;;;3.77;2.40;;;;;;;;;;5051075;28;20234;-51
2022/07/10 00:17:53;;;;;;;7.40;3.47;;;;;;;;;;5050842;28;20196;-51
2022/07/10 00:20:19;;;;;;;3.07;2.40;;;;;;;;;;5050202;28;20234;-51
2022/07/10 00:22:45;;;;;;;3.10;2.37;;;;;;;;;;5067673;28;20161;-51
2022/07/10 00:25:12;;;;;;;3.63;2.73;;;;;;;;;;5069071;28;20279;-50
2022/07/10 00:27:38;;;;;;;4.07;2.00;;;;;;;;;;5067831;28;20235;-51
2022/07/10 00:30:05;;;;;;;4.60;2.53;;;;;;;;;;5068446;28;20184;-51
2022/07/10 00:32:31;;;;;;;5.93;2.67;;;;;;;;;;5067996;28;20488;-50
2022/07/10 00:34:57;;;;;;;4.00;2.10;;;;;;;;;;5068546;28;20186;-50
2022/07/10 00:37:23;;;;;;;5.00;2.67;;;;;;;;;;5050303;27;20572;-50
2022/07/10 00:39:49;;;;;;;3.83;2.57;;;;;;;;;;5068019;28;20531;-51
2022/07/10 00:42:15;;;;;;;4.87;2.10;;;;;;;;;;5067526;28;20263;-51
2022/07/10 00:44:42;;;;;;;6.30;2.53;;;;;;;;;;5067950;28;20579;-51
2022/07/10 00:47:09;;;;;;;5.20;2.67;;;;;;;;;;5049878;28;20277;-51
2022/07/10 00:49:36;;;;;;;4.27;2.47;;;;;;;;;;5067846;28;20190;-51
2022/07/10 00:52:03;;;;;;;4.00;2.30;;;;;;;;;;5066981;28;20881;-50
2022/07/10 00:54:30;;;;;;;2.67;2.10;;;;;;;;;;5067860;28;20187;-50
2022/07/10 00:56:57;;;;;;;2.77;2.30;;;;;;;;;;5067585;28;20181;-51
2022/07/10 00:59:24;;;;;;;3.87;2.27;;;;;;;;;;5067911;28;20553;-50
2022/07/10 01:01:51;;;;;;;6.20;2.83;;;;;;;;;;5067794;28;20203;-51
2022/07/10 01:04:20;;;;;;;4.27;2.00;;;;;;;;;;5049782;28;20187;-50
2022/07/10 01:06:46;;;;;;;3.60;2.00;;;;;;;;;;5058123;28;20539;-51
2022/07/10 01:09:13;;;;;;;5.57;2.60;;;;;;;;;;5065586;28;20176;-55
2022/07/10 01:11:39;;;;;;;6.00;2.37;;;;;;;;;;5079129;28;20726;-52
2022/07/10 01:14:06;;;;;;;3.63;2.30;;;;;;;;;;5068966;28;20179;-51
2022/07/10 01:16:32;;;;;;;5.57;2.43;;;;;;;;;;5068994;28;20278;-51
2022/07/10 01:18:59;;;;;;;3.97;2.70;;;;;;;;;;5069505;28;20198;-51
2022/07/10 01:21:30;;;;;;;2.97;2.33;;;;;;;;;;5059072;28;20200;-52
2022/07/10 01:23:57;;;;;;;5.77;2.20;;;;;;;;;;5048867;28;20181;-51
2022/07/10 01:26:24;;;;;;;5.90;2.50;;;;;;;;;;5032807;28;20681;-51
2022/07/10 01:28:50;;;;;;;4.23;2.17;;;;;;;;;;5066901;28;20206;-51
2022/07/10 01:31:20;;;;;;;4.30;2.17;;;;;;;;;;5067187;28;20543;-52
2022/07/10 01:33:47;;;;;;;4.07;2.53;;;;;;;;;;5049157;28;20168;-51
2022/07/10 01:36:13;;;;;;;3.53;2.20;;;;;;;;;;5066589;28;20180;-51
2022/07/10 01:38:40;;;;;;;3.60;2.40;;;;;;;;;;5066906;27;20650;-51
2022/07/10 01:41:08;;;;;;;4.33;2.10;;;;;;;;;;5067227;28;20176;-52
2022/07/10 01:43:34;;;;;;;4.60;1.93;;;;;;;;;;5066287;28;20195;-52
2022/07/10 01:46:00;;;;;;;3.70;2.30;;;;;;;;;;5066738;28;20220;-51
2022/07/10 01:48:26;;;;;;;9.00;3.30;;;;;;;;;;5066451;28;20626;-51
2022/07/10 01:50:52;;;;;;;4.47;2.30;;;;;;;;;;5066652;28;20204;-51
2022/07/10 01:53:18;;;;;;;6.00;2.57;;;;;;;;;;5047236;28;20453;-51
2022/07/10 01:55:45;;;;;;;5.47;2.20;;;;;;;;;;5066187;28;20663;-50
2022/07/10 01:58:11;;;;;;;3.77;2.33;;;;;;;;;;5066418;28;20185;-51
2022/07/10 02:00:37;;;;;;;5.03;2.60;;;;;;;;;;5066358;28;20184;-51
2022/07/10 02:05:48;;;;;;;4.13;2.30;;;;;;;;;;5066164;28;20697;-51
2022/07/10 02:08:14;;;;;;;7.97;2.47;;;;;;;;;;5065633;28;20168;-52
2022/07/10 02:10:41;;;;;;;5.13;2.10;;;;;;;;;;5066533;28;20175;-51
2022/07/10 02:13:09;;;;;;;7.73;2.23;;;;;;;;;;5065380;28;20184;-52
2022/07/10 02:15:36;;;;;;;3.33;2.20;;;;;;;;;;5065245;28;20223;-51
2022/07/10 02:18:02;;;;;;;6.40;2.77;;;;;;;;;;5032878;28;20278;-52
2022/07/10 02:20:29;;;;;;;5.90;2.70;;;;;;;;;;5066815;28;20584;-52
2022/07/10 02:22:55;;;;;;;4.43;2.23;;;;;;;;;;5047887;28;20168;-52
2022/07/10 02:25:22;;;;;;;4.13;2.50;;;;;;;;;;5048551;28;20200;-53
2022/07/10 02:27:48;;;;;;;7.60;2.23;;;;;;;;;;5066597;28;20161;-53
2022/07/10 02:30:14;;;;;;;3.13;1.80;;;;;;;;;;5048898;28;20685;-53
2022/07/10 02:32:41;;;;;;;3.27;2.03;;;;;;;;;;5048342;28;20639;-52
2022/07/10 02:35:13;;;;;;;2.90;2.20;;;;;;;;;;5047889;28;20242;-52
2022/07/10 02:37:40;;;;;;;3.90;2.20;;;;;;;;;;5048771;28;20271;-52
2022/07/10 02:40:06;;;;;;;4.43;2.20;;;;;;;;;;5048113;28;20187;-52
2022/07/10 02:42:34;;;;;;;4.87;2.77;;;;;;;;;;5048411;28;20214;-53
2022/07/10 02:45:00;;;;;;;3.87;2.30;;;;;;;;;;5066924;28;20184;-52
2022/07/10 02:47:26;;;;;;;3.60;1.90;;;;;;;;;;5066541;28;20183;-52
2022/07/10 02:49:56;;;;;;;5.23;2.73;;;;;;;;;;5048686;28;20468;-50
2022/07/10 02:52:22;;;;;;;4.87;2.13;;;;;;;;;;5065606;28;20202;-55
2022/07/10 02:54:50;;;;;;;3.73;2.90;;;;;;;;;;5048122;28;20630;-51
2022/07/10 02:57:16;;;;;;;8.03;7.03;;;;;;;;;;5065639;28;20205;-55
2022/07/10 02:59:42;;;;;;;4.83;2.23;;;;;;;;;;5066377;28;20161;-51
2022/07/10 03:02:08;;;;;;;4.03;3.63;;;;;;;;;;5063605;28;20184;-51
2022/07/10 03:04:34;;;;;;;5.63;2.57;;;;;;;;;;5086603;28;20162;-50
2022/07/10 03:07:07;;;;;;;3.10;2.73;;;;;;;;;;5070768;28;20223;-51
2022/07/10 03:09:34;;;;;;;7.43;3.70;;;;;;;;;;5067908;28;20623;-52
2022/07/10 03:12:00;;;;;;;7.97;3.10;;;;;;;;;;5069813;28;20218;-51
2022/07/10 03:14:26;;;;;;;6.50;2.40;;;;;;;;;;5070159;28;20638;-51
2022/07/10 03:16:52;;;;;;;10.13;9.57;;;;;;;;;;5069789;28;20212;-51
2022/07/10 03:19:18;;;;;;;5.07;2.60;;;;;;;;;;5051773;28;20246;-52
2022/07/10 03:21:45;;;;;;;3.93;2.53;;;;;;;;;;5069345;28;20173;-51
2022/07/10 03:24:11;;;;;;;8.00;3.03;;;;;;;;;;5069269;28;20218;-51
2022/07/10 03:26:37;;;;;;;7.77;2.67;;;;;;;;;;5069469;28;20207;-51
2022/07/10 03:29:03;;;;;;;4.47;2.43;;;;;;;;;;5069768;28;20624;-50
2022/07/10 03:31:29;;;;;;;5.77;4.37;;;;;;;;;;5068952;28;20173;-50
2022/07/10 03:33:56;;;;;;;5.97;2.63;;;;;;;;;;5070039;28;20639;-50
2022/07/10 03:36:22;;;;;;;3.90;2.33;;;;;;;;;;5078892;28;20176;-51
2022/07/10 03:38:48;;;;;;;4.47;3.23;;;;;;;;;;5089466;28;20655;-51
2022/07/10 03:41:14;;;;;;;3.67;2.70;;;;;;;;;;5089408;28;20584;-51
2022/07/10 03:43:41;;;;;;;3.47;2.30;;;;;;;;;;5089635;28;20606;-73
2022/07/10 03:46:07;;;;;;;3.33;2.23;;;;;;;;;;5089266;28;20722;-50
2022/07/10 03:48:33;;;;;;;4.60;2.30;;;;;;;;;;5089892;28;20525;-51
2022/07/10 03:50:59;;;;;;;4.37;2.77;;;;;;;;;;5089231;28;20749;-50
2022/07/10 03:53:25;;;;;;;4.83;3.13;;;;;;;;;;5088622;28;20155;-49
2022/07/10 03:55:52;;;;;;;5.53;2.50;;;;;;;;;;5088945;28;20175;-50
2022/07/10 03:58:18;;;;;;;4.33;2.43;;;;;;;;;;5070945;28;20183;-52
2022/07/10 04:00:44;;;;;;;6.77;2.90;;;;;;;;;;5085161;28;20176;-52
2022/07/10 04:03:10;;;;;;;5.50;5.10;;;;;;;;;;5068606;28;20682;-51
2022/07/10 04:05:36;;;;;;;4.37;2.53;;;;;;;;;;5050690;28;20652;-51
2022/07/10 04:08:03;;;;;;;5.03;3.43;;;;;;;;;;5067760;28;20179;-53
2022/07/10 04:10:31;;;;;;;4.97;2.83;;;;;;;;;;5070093;28;20160;-51
2022/07/10 04:12:57;;;;;;;7.57;3.63;;;;;;;;;;5089134;28;20197;-51
2022/07/10 04:15:23;;;;;;;2.90;2.70;;;;;;;;;;5088469;28;20175;-51
2022/07/10 04:17:50;;;;;;;6.50;2.60;;;;;;;;;;5089202;28;20185;-51
2022/07/10 04:20:16;;;;;;;5.97;2.47;;;;;;;;;;5069396;28;20204;-51
2022/07/10 04:22:43;;;;;;;3.37;2.63;;;;;;;;;;5087926;28;20156;-51
2022/07/10 04:25:09;;;;;;;7.13;4.13;;;;;;;;;;5088882;28;20160;-52
2022/07/10 04:27:35;;;;;;;3.30;2.90;;;;;;;;;;5088237;28;20240;-51
2022/07/10 04:30:01;;;;;;;3.73;2.57;;;;;;;;;;5088831;28;20618;-51
2022/07/10 04:32:27;;;;;;;4.17;2.87;;;;;;;;;;5088112;28;20539;-52
2022/07/10 04:34:54;;;;;;;5.43;2.83;;;;;;;;;;5089209;28;20625;-50
2022/07/10 04:37:20;;;;;;;4.17;2.53;;;;;;;;;;5086859;28;20184;-51
2022/07/10 04:39:46;;;;;;;4.17;3.00;;;;;;;;;;5088789;28;20635;-50
2022/07/10 04:42:12;;;;;;;4.10;2.37;;;;;;;;;;5071572;28;20181;-50
2022/07/10 04:44:38;;;;;;;2.60;2.40;;;;;;;;;;5050725;28;20580;-49
2022/07/10 04:47:05;;;;;;;4.77;2.87;;;;;;;;;;5067957;28;20212;-52
2022/07/10 04:49:32;;;;;;;4.07;2.93;;;;;;;;;;5050406;28;20219;-51
2022/07/10 04:51:58;;;;;;;5.00;2.60;;;;;;;;;;5067091;28;20728;-51
2022/07/10 04:54:24;;;;;;;5.80;2.63;;;;;;;;;;5049860;28;20646;-51
2022/07/10 04:56:51;;;;;;;5.13;2.70;;;;;;;;;;5067518;28;20659;-50
2022/07/10 04:59:17;;;;;;;4.83;3.00;;;;;;;;;;5068231;28;20530;-51
2022/07/10 05:01:43;;;;;;;2.60;2.30;;;;;;;;;;5067771;28;20737;-50
2022/07/10 05:04:09;;;;;;;5.30;2.60;;;;;;;;;;5067836;28;20167;-51
2022/07/10 05:06:35;;;;;;;5.07;2.70;;;;;;;;;;5067050;28;20632;-55
2022/07/10 05:09:02;;;;;;;4.90;2.90;;;;;;;;;;5066916;28;20236;-51
2022/07/10 05:11:28;;;;;;;6.53;3.77;;;;;;;;;;5067514;28;20201;-51
2022/07/10 05:13:54;;;;;;;4.50;3.43;;;;;;;;;;5067357;28;20185;-52
2022/07/10 05:16:20;;;;;;;3.10;2.40;;;;;;;;;;5076578;28;20535;-52
2022/07/10 05:18:46;;;;;;;4.53;3.10;;;;;;;;;;5087754;28;20270;-51
2022/07/10 05:21:12;;;;;;;6.13;2.80;;;;;;;;;;5087264;28;20172;-51
2022/07/10 05:23:39;;;;;;;4.40;2.53;;;;;;;;;;5086658;28;20176;-54
2022/07/10 05:26:06;;;;;;;4.73;2.80;;;;;;;;;;5087395;28;20199;-51
2022/07/10 05:28:32;;;;;;;2.80;2.57;;;;;;;;;;5055040;28;20180;-51
2022/07/10 05:31:05;;;;;;;4.93;2.90;;;;;;;;;;5066110;28;20218;-52
2022/07/10 05:33:32;;;;;;;4.00;3.10;;;;;;;;;;5067148;28;20241;-51
2022/07/10 05:35:58;;;;;;;5.93;2.60;;;;;;;;;;5067132;28;20518;-50
2022/07/10 05:38:36;;;;;;;6.40;3.20;;;;;;;;;;5066742;27;20345;-51
2022/07/10 05:41:03;;;;;;;5.83;2.70;;;;;;;;;;5067361;28;20176;-51
2022/07/10 05:43:30;;;;;;;6.83;2.73;;;;;;;;;;5067838;28;20173;-52
2022/07/10 05:45:56;;;;;;;3.70;2.40;;;;;;;;;;5072433;28;20200;-53
2022/07/10 05:48:22;;;;;;;5.40;3.00;;;;;;;;;;5087570;28;20295;-51
2022/07/10 05:50:48;;;;;;;5.93;3.70;;;;;;;;;;5063953;28;20204;-50
2022/07/10 05:53:14;;;;;;;3.17;2.73;;;;;;;;;;5065737;28;20638;-51
2022/07/10 05:55:41;;;;;;;4.07;2.97;;;;;;;;;;5048793;28;20571;-51
2022/07/10 05:58:10;;;;;;;3.50;2.60;;;;;;;;;;5067273;28;20156;-50
2022/07/10 06:00:36;;;;;;;5.27;3.23;;;;;;;;;;5069889;28;20600;-56
2022/07/10 06:03:03;;;;;;;7.80;3.10;;;;;;;;;;5087232;28;20243;-55
2022/07/10 06:05:29;;;;;;;6.17;2.60;;;;;;;;;;5066629;28;20541;-53
2022/07/10 06:07:55;;;;;;;6.20;2.83;;;;;;;;;;5065560;28;20157;-50
2022/07/10 06:10:21;;;;;;;5.53;2.67;;;;;;;;;;5048358;28;20654;-51
2022/07/10 06:12:47;;;;;;;3.33;3.00;;;;;;;;;;5066419;28;20165;-51
2022/07/10 06:15:14;;;;;;;3.03;2.33;;;;;;;;;;5067495;28;20161;-50
2022/07/10 06:17:40;;;;;;;2.90;2.60;;;;;;;;;;5048212;28;20200;-51
2022/07/10 06:20:07;;;;;;;7.07;2.63;;;;;;;;;;5067871;28;20165;-52
2022/07/10 06:22:33;;;;;;;3.83;2.60;;;;;;;;;;5065760;28;20168;-51
2022/07/10 06:25:06;;;;;;;6.23;2.67;;;;;;;;;;5048226;28;20734;-51
2022/07/10 06:27:33;;;;;;;6.53;2.60;;;;;;;;;;5066475;28;20485;-50
2022/07/10 06:29:59;;;;;;;9.67;3.47;;;;;;;;;;5049164;28;20196;-51
2022/07/10 06:32:26;;;;;;;5.20;2.87;;;;;;;;;;5062317;28;20185;-51
2022/07/10 06:34:54;;;;;;;3.03;2.37;;;;;;;;;;5066836;28;20191;-50
2022/07/10 06:37:20;;;;;;;4.23;3.87;;;;;;;;;;5050139;28;20200;-52
2022/07/10 06:39:50;;;;;;;4.67;2.90;;;;;;;;;;5049336;28;20287;-52
2022/07/10 06:42:17;;;;;;;3.23;2.63;;;;;;;;;;5073042;28;20194;-51
2022/07/10 06:44:46;;;;;;;6.13;2.80;;;;;;;;;;5071114;28;20159;-52
2022/07/10 06:49:59;;;;;;;5.87;2.50;;;;;;;;;;5071536;28;20195;-51
2022/07/10 06:52:26;;;;;;;8.40;2.80;;;;;;;;;;5069613;28;20606;-51
2022/07/10 06:54:53;;;;;;;4.77;2.60;;;;;;;;;;5070606;28;20182;-52
2022/07/10 06:57:19;;;;;;;6.67;3.57;;;;;;;;;;5069819;28;20259;-53
2022/07/10 06:59:46;;;;;;;5.63;2.87;;;;;;;;;;5070842;28;20228;-51
2022/07/10 07:02:12;;;;;;;6.43;3.07;;;;;;;;;;5067244;28;20256;-51
2022/07/10 07:04:38;;;;;;;5.07;3.40;;;;;;;;;;5072147;28;20266;-51
2022/07/10 07:07:05;;;;;;;4.73;2.90;;;;;;;;;;5088712;28;20189;-54
2022/07/10 07:09:34;;;;;;;4.97;2.70;;;;;;;;;;5071272;28;20152;-49
2022/07/10 07:12:00;;;;;;;10.20;2.80;;;;;;;;;;5089693;28;20200;-48
2022/07/10 07:14:27;;;;;;;5.30;2.63;;;;;;;;;;5090185;28;20162;-47
2022/07/10 07:17:06;;;;;;;3.73;2.40;;;;;;;;;;5089445;28;20842;-48
2022/07/10 07:25:07;;;;;;;4.13;2.77;;;;;;;;;;5075090;28;20167;-48
2022/07/10 07:27:34;;;;;;;8.27;3.17;;;;;;;;;;5069429;28;20402;-48
2022/07/10 07:30:10;;;;;;;7.20;2.73;;;;;;;;;;5069951;28;20191;-48
2022/07/10 07:32:36;;;;;;;4.17;2.63;;;;;;;;;;5088725;28;20623;-48
2022/07/10 07:35:03;;;;;;;4.37;2.33;;;;;;;;;;5090069;28;20203;-49
2022/07/10 07:37:55;;;;;;;4.47;2.70;;;;;;;;;;5088099;28;20168;-49
2022/07/10 07:40:23;;;;;;;3.80;2.30;;;;;;;;;;5084998;27;20224;-50
2022/07/10 07:42:55;;;;;;;5.90;2.57;;;;;;;;;;5034749;28;20549;-48
2022/07/10 07:45:22;;;;;;;4.63;2.17;;;;;;;;;;5069806;28;20287;-49
2022/07/10 07:47:50;;;;;;;4.07;2.53;;;;;;;;;;5089495;28;20163;-48
2022/07/10 07:50:21;;;;;;;6.17;3.00;;;;;;;;;;5089585;28;20231;-47
2022/07/10 07:52:47;;;;;;;5.50;2.93;;;;;;;;;;5048032;28;20193;-49
2022/07/10 07:55:14;;;;;;;4.83;2.77;;;;;;;;;;5048462;28;20196;-50
2022/07/10 07:57:41;;;;;;;3.60;2.20;;;;;;;;;;5089097;28;20585;-48
2022/07/10 08:00:08;;;;;;;2.63;2.37;;;;;;;;;;5089553;28;20611;-48
2022/07/10 08:02:34;;;;;;;2.93;2.03;;;;;;;;;;5051169;28;20181;-48
2022/07/10 08:05:00;;;;;;;3.43;2.53;;;;;;;;;;5069425;28;20536;-48
2022/07/10 08:07:40;;;;;;;2.40;2.03;;;;;;;;;;5067605;28;20200;-48
2022/07/10 08:10:08;;;;;;;7.43;2.57;;;;;;;;;;5051011;28;20188;-47
2022/07/10 08:12:34;;;;;;;3.23;2.50;;;;;;;;;;5050520;28;20231;-48
2022/07/10 08:15:01;;;;;;;2.97;2.50;;;;;;;;;;5050429;28;20183;-48
2022/07/10 08:17:27;;;;;;;4.63;2.50;;;;;;;;;;5068549;28;20207;-48
2022/07/10 08:19:54;;;;;;;3.90;2.77;;;;;;;;;;5054551;28;20646;-48
2022/07/10 08:22:20;;;;;;;2.97;2.07;;;;;;;;;;5052231;28;20192;-47
2022/07/10 08:24:46;;;;;;;4.67;2.53;;;;;;;;;;5050712;28;20718;-47
2022/07/10 08:27:13;;;;;;;2.83;2.50;;;;;;;;;;5033853;28;20239;-47
2022/07/10 08:29:39;;;;;;;3.40;1.83;;;;;;;;;;5050798;28;20181;-47
2022/07/10 08:32:05;;;;;;;3.73;2.40;;;;;;;;;;5061471;28;20184;-48
2022/07/10 08:34:33;;;;;;;3.43;2.33;;;;;;;;;;5068680;28;20687;-47
2022/07/10 08:36:59;;;;;;;5.30;2.60;;;;;;;;;;5054982;28;20199;-49
2022/07/10 08:39:25;;;;;;;5.60;2.43;;;;;;;;;;5060183;27;20229;-48
2022/07/10 08:41:52;;;;;;;4.13;2.33;;;;;;;;;;5047849;28;20292;-48
2022/07/10 08:44:18;;;;;;;2.37;2.10;;;;;;;;;;5048569;28;20169;-48
2022/07/10 08:46:45;;;;;;;2.97;2.07;;;;;;;;;;5048029;28;20525;-48
2022/07/10 08:49:13;;;;;;;2.33;1.83;;;;;;;;;;5048692;28;20280;-49
2022/07/10 08:52:02;;;;;;;3.53;2.50;;;;;;;;;;5047668;28;20204;-50
2022/07/10 08:54:30;;;;;;;3.97;2.43;;;;;;;;;;5029286;28;20199;-47
2022/07/10 08:57:00;;;;;;;4.73;2.53;;;;;;;;;;5023097;28;20184;-49
2022/07/10 08:59:26;;;;;;;6.27;2.53;;;;;;;;;;5038299;28;20621;-49
2022/07/10 09:01:53;;;;;;;2.87;2.10;;;;;;;;;;5033394;28;20670;-50
2022/07/10 09:04:21;;;;;;;3.33;2.40;;;;;;;;;;5039149;28;20180;-48
2022/07/10 09:06:48;;;;;;;2.43;2.13;;;;;;;;;;5036084;28;20216;-49
2022/07/10 09:09:14;;;;;;;3.40;2.10;;;;;;;;;;5037832;28;20239;-48
2022/07/10 09:11:42;;;;;;;3.70;2.63;;;;;;;;;;5039648;28;20178;-48
2022/07/10 09:14:08;;;;;;;3.33;2.23;;;;;;;;;;5036782;28;20174;-52
2022/07/10 09:16:35;;;;;;;3.03;2.20;;;;;;;;;;5041424;28;20189;-49
2022/07/10 09:19:20;;;;;;;4.53;2.90;;;;;;;;;;5048255;28;20288;-48
2022/07/10 09:21:48;;;;;;;3.30;2.30;;;;;;;;;;5029538;28;20197;-52
2022/07/10 09:24:17;;;;;;;3.43;2.20;;;;;;;;;;5047354;28;20224;-52
2022/07/10 09:26:43;;;;;;;4.37;2.73;;;;;;;;;;5029580;28;20709;-49
2022/07/10 09:29:10;;;;;;;3.50;2.80;;;;;;;;;;5047543;28;20187;-49
2022/07/10 09:31:53;;;;;;;4.37;2.20;;;;;;;;;;5047919;28;20161;-48
2022/07/10 09:34:36;;;;;;;2.73;2.10;;;;;;;;;;5047789;28;20182;-48
2022/07/10 09:37:18;;;;;;;2.73;2.53;;;;;;;;;;5046080;28;20216;-49
2022/07/10 09:39:52;;;;;;;3.40;2.30;;;;;;;;;;5060045;27;20231;-48
2022/07/10 09:42:27;;;;;;;4.07;2.40;;;;;;;;;;5067274;28;20581;-52
2022/07/10 09:45:13;;;;;;;2.67;2.30;;;;;;;;;;5049495;28;20178;-48
2022/07/10 09:48:00;;;;;;;3.80;2.40;;;;;;;;;;5067154;28;20291;-48
2022/07/10 09:50:26;;;;;;;3.73;2.40;;;;;;;;;;5067601;28;20542;-49
2022/07/10 09:52:53;;;;;;;3.33;2.20;;;;;;;;;;5065882;28;20163;-64
2022/07/10 09:55:20;;;;;;;3.07;2.50;;;;;;;;;;5067546;28;20172;-48
2022/07/10 09:57:52;;;;;;;2.50;2.30;;;;;;;;;;5067290;28;20615;-49
2022/07/10 10:00:18;;;;;;;3.67;2.50;;;;;;;;;;5067323;28;20204;-50
2022/07/10 10:02:46;;;;;;;2.60;2.20;;;;;;;;;;5066963;28;20161;-48
2022/07/10 10:05:12;;;;;;;3.23;1.87;;;;;;;;;;5067614;28;20184;-49
2022/07/10 10:07:38;;;;;;;3.37;2.73;;;;;;;;;;5047545;28;20756;-49
2022/07/10 10:10:06;;;;;;;3.53;2.60;;;;;;;;;;5067224;28;20157;-49
2022/07/10 10:12:40;;;;;;;4.87;2.30;;;;;;;;;;5066304;28;20169;-50
2022/07/10 10:15:07;;;;;;;4.00;2.33;;;;;;;;;;5066733;28;20417;-48
2022/07/10 10:17:35;;;;;;;2.40;2.20;;;;;;;;;;5048804;28;20259;-49
2022/07/10 10:22:48;;;;;;;3.63;2.33;;;;;;;;;;5045914;28;20704;-49
2022/07/10 10:25:19;;;;;;;2.70;1.90;;;;;;;;;;5046817;28;20649;-49
2022/07/10 10:27:45;;;;;;;3.10;2.40;;;;;;;;;;5066459;28;20167;-50
2022/07/10 10:30:15;;;;;;;2.10;1.90;;;;;;;;;;5066724;28;20223;-48
2022/07/10 10:32:41;;;;;;;2.30;2.10;;;;;;;;;;5065230;28;20180;-50
2022/07/10 10:35:15;;;;;;;1.70;1.60;;;;;;;;;;5065320;28;20355;-49
2022/07/10 10:37:43;;;;;;;2.10;1.90;;;;;;;;;;5064094;28;20720;-48
2022/07/10 10:40:11;;;;;;;2.23;2.03;;;;;;;;;;5080976;28;20227;-49
2022/07/10 10:42:38;;;;;;;1.90;1.80;;;;;;;;;;5066801;28;20196;-49
2022/07/10 10:45:23;;;;;;;2.10;1.90;;;;;;;;;;5048867;28;20187;-49
2022/07/10 10:48:00;;;;;;;1.80;1.70;;;;;;;;;;5065951;28;20172;-48
2022/07/10 10:50:40;;;;;;;2.07;1.77;;;;;;;;;;5049657;28;20299;-48
2022/07/10 10:53:17;;;;;;;2.00;1.90;;;;;;;;;;5067097;28;20241;-48
2022/07/10 10:55:59;;;;;;;1.80;1.70;;;;;;;;;;5064462;28;20594;-48
2022/07/10 10:58:25;;;;;;;1.87;1.70;;;;;;;;;;5066369;28;20163;-48
2022/07/10 11:00:52;;;;;;;2.07;1.93;;;;;;;;;;5048174;28;20196;-48
2022/07/10 11:03:20;;;;;;;1.90;1.77;;;;;;;;;;5047765;28;20192;-48
2022/07/10 11:05:47;;;;;;;1.70;1.60;;;;;;;;;;5048477;28;20349;-49
2022/07/10 11:08:14;;;;;;;2.23;2.03;;;;;;;;;;5063916;28;20583;-47
2022/07/10 11:10:40;;;;;;;1.73;1.63;;;;;;;;;;5063790;28;20199;-51
2022/07/10 11:13:14;;;;;;;2.47;2.03;;;;;;;;;;5048095;28;20202;-50
2022/07/10 11:15:44;;;;;;;2.40;1.73;;;;;;;;;;5047223;28;20204;-49
2022/07/10 11:18:14;;;;;;;1.83;1.73;;;;;;;;;;5066051;28;20627;-49
2022/07/10 11:20:45;;;;;;;2.00;1.80;;;;;;;;;;5069141;28;20618;-53
2022/07/10 11:23:24;;;;;;;2.30;2.20;;;;;;;;;;5084797;28;20559;-50
2022/07/10 11:26:01;;;;;;;2.13;1.90;;;;;;;;;;5085560;28;20295;-49
2022/07/10 11:28:46;;;;;;;2.53;1.90;;;;;;;;;;5072330;28;20263;-53
2022/07/10 11:31:19;;;;;;;2.20;1.83;;;;;;;;;;5068847;28;20263;-50
2022/07/10 11:33:48;;;;;;;2.00;1.80;;;;;;;;;;5069629;28;20588;-51
2022/07/10 11:36:21;;;;;;;2.20;2.00;;;;;;;;;;5059047;28;20183;-51
2022/07/10 11:38:54;;;;;;;2.00;1.80;;;;;;;;;;5070098;28;20214;-50
2022/07/10 11:41:24;;;;;;;2.13;1.93;;;;;;;;;;5081139;28;20188;-51
2022/07/10 11:43:51;;;;;;;2.37;2.00;;;;;;;;;;5071225;28;20203;-51
2022/07/10 11:46:18;;;;;;;2.03;1.90;;;;;;;;;;5081184;28;20287;-51
2022/07/10 11:48:44;;;;;;;2.13;1.93;;;;;;;;;;5069434;28;20167;-50
2022/07/10 11:51:17;;;;;;;2.07;1.87;;;;;;;;;;5069633;28;20659;-50
2022/07/10 11:53:53;;;;;;;4.27;2.20;;;;;;;;;;5050179;28;20678;-51
2022/07/10 11:56:19;;;;;;;2.30;2.10;;;;;;;;;;5069285;28;20599;-50
2022/07/10 11:58:53;;;;;;;3.07;2.07;;;;;;;;;;5051232;28;20208;-51
2022/07/10 12:01:20;;;;;;;4.00;3.10;;;;;;;;;;5069510;28;20207;-50
2022/07/10 12:03:56;;;;;;;2.43;2.00;;;;;;;;;;5069358;28;20211;-51
2022/07/10 12:06:22;;;;;;;2.20;2.10;;;;;;;;;;5068850;28;20215;-51
2022/07/10 12:08:48;;;;;;;2.67;2.23;;;;;;;;;;5068644;28;20156;-51
2022/07/10 12:11:16;;;;;;;3.00;2.13;;;;;;;;;;5069062;28;20176;-51
2022/07/10 12:13:44;;;;;;;2.70;2.17;;;;;;;;;;5034719;28;20225;-51
2022/07/10 12:16:10;;;;;;;1.80;1.70;;;;;;;;;;5034207;28;20605;-50
2022/07/10 12:18:36;;;;;;;4.23;2.30;;;;;;;;;;5069239;28;20192;-49
2022/07/10 12:21:02;;;;;;;4.13;2.83;;;;;;;;;;5068680;28;20180;-50
2022/07/10 12:23:29;;;;;;;2.67;2.27;;;;;;;;;;5067864;28;20466;-50
2022/07/10 12:25:56;;;;;;;3.10;2.10;;;;;;;;;;5069143;28;20205;-51
2022/07/10 12:28:22;;;;;;;2.80;2.07;;;;;;;;;;5068628;28;20638;-49
2022/07/10 12:30:50;;;;;;;4.07;2.33;;;;;;;;;;5068488;28;20194;-51
2022/07/10 12:33:17;;;;;;;2.77;2.10;;;;;;;;;;5050527;28;20220;-51
2022/07/10 12:35:48;;;;;;;3.70;2.17;;;;;;;;;;5050676;28;20188;-53
2022/07/10 12:38:21;;;;;;;3.63;2.43;;;;;;;;;;5067713;28;20153;-51
2022/07/10 12:40:48;;;;;;;5.13;2.27;;;;;;;;;;5049178;28;20224;-56
2022/07/10 12:43:25;;;;;;;2.43;2.20;;;;;;;;;;5048254;28;20185;-52
2022/07/10 12:46:10;;;;;;;4.00;2.03;;;;;;;;;;5048021;28;20208;-51
2022/07/10 12:48:37;;;;;;;5.67;2.83;;;;;;;;;;5048190;28;20212;-51
2022/07/10 12:51:22;;;;;;;3.50;2.23;;;;;;;;;;5048587;28;20702;-50
2022/07/10 12:53:48;;;;;;;3.57;2.30;;;;;;;;;;5047697;28;20188;-48
2022/07/10 12:56:34;;;;;;;5.13;2.30;;;;;;;;;;5048672;28;20173;-49
2022/07/10 12:59:01;;;;;;;5.00;2.27;;;;;;;;;;5027242;28;20193;-55
2022/07/10 13:01:40;;;;;;;3.23;2.30;;;;;;;;;;5020381;28;20177;-55
2022/07/10 13:04:08;;;;;;;4.57;2.07;;;;;;;;;;5048801;28;20659;-52
2022/07/10 13:06:36;;;;;;;2.97;2.77;;;;;;;;;;5047428;28;20224;-51
2022/07/10 13:09:02;;;;;;;3.47;2.40;;;;;;;;;;5029383;28;20670;-50
2022/07/10 13:11:28;;;;;;;3.27;2.20;;;;;;;;;;5047451;28;20192;-51
2022/07/10 13:13:54;;;;;;;6.03;2.40;;;;;;;;;;5047493;28;20488;-51
2022/07/10 13:16:22;;;;;;;3.00;2.50;;;;;;;;;;5047229;28;20249;-51
2022/07/10 13:18:48;;;;;;;2.50;2.30;;;;;;;;;;5030008;28;20616;-51
2022/07/10 13:21:14;;;;;;;2.70;2.10;;;;;;;;;;5047125;28;20178;-52
2022/07/10 13:23:42;;;;;;;2.60;2.10;;;;;;;;;;5027886;28;20161;-50
2022/07/10 13:26:09;;;;;;;2.50;2.30;;;;;;;;;;5029467;28;20271;-51
2022/07/10 13:28:35;;;;;;;4.93;2.50;;;;;;;;;;5032878;28;20186;-51
2022/07/10 13:31:02;;;;;;;3.43;2.23;;;;;;;;;;5033628;28;20264;-51
2022/07/10 13:33:28;;;;;;;5.23;2.50;;;;;;;;;;5047590;28;20237;-52
2022/07/10 13:35:55;;;;;;;3.63;2.20;;;;;;;;;;5029221;28;20193;-52
2022/07/10 13:38:23;;;;;;;4.30;2.33;;;;;;;;;;5027419;28;20639;-52
2022/07/10 13:40:50;;;;;;;2.00;1.90;;;;;;;;;;5064084;28;20339;-52
2022/07/10 13:43:26;;;;;;;2.70;2.40;;;;;;;;;;5066928;28;20165;-50
2022/07/10 13:45:52;;;;;;;2.23;2.00;;;;;;;;;;5066975;28;20206;-50
2022/07/10 13:48:19;;;;;;;3.30;2.20;;;;;;;;;;5066996;28;20165;-52
2022/07/10 13:50:47;;;;;;;3.00;2.40;;;;;;;;;;5049007;28;20204;-52
2022/07/10 13:53:13;;;;;;;1.93;1.83;;;;;;;;;;5065343;28;20612;-55
2022/07/10 13:55:40;;;;;;;3.30;2.10;;;;;;;;;;5048492;28;20260;-51
2022/07/10 13:58:08;;;;;;;2.23;2.03;;;;;;;;;;5048920;28;20173;-51
2022/07/10 14:00:35;;;;;;;3.23;2.30;;;;;;;;;;5066647;28;20215;-52
2022/07/10 14:03:01;;;;;;;2.33;2.13;;;;;;;;;;5048109;28;20168;-51
2022/07/10 14:05:27;;;;;;;2.20;2.10;;;;;;;;;;5066758;28;20161;-51
2022/07/10 14:07:54;;;;;;;2.00;1.90;;;;;;;;;;5065733;28;20256;-50
2022/07/10 14:10:20;;;;;;;2.33;1.90;;;;;;;;;;5066283;28;20168;-50
2022/07/10 14:12:46;;;;;;;3.53;2.37;;;;;;;;;;5066374;28;20669;-51
2022/07/10 14:15:13;;;;;;;2.40;2.00;;;;;;;;;;5066722;28;20180;-51
2022/07/10 14:17:39;;;;;;;2.80;2.07;;;;;;;;;;5066233;28;20183;-51
2022/07/10 14:20:05;;;;;;;3.83;2.43;;;;;;;;;;5066837;28;20172;-52
2022/07/10 14:22:32;;;;;;;2.37;2.10;;;;;;;;;;5065882;28;20172;-51
2022/07/10 14:25:00;;;;;;;3.33;2.10;;;;;;;;;;5048217;28;20181;-52
2022/07/10 14:27:31;;;;;;;3.00;2.07;;;;;;;;;;5048048;28;20215;-49
2022/07/10 14:29:58;;;;;;;3.77;2.43;;;;;;;;;;5048816;28;20164;-51
2022/07/10 14:32:25;;;;;;;4.27;2.40;;;;;;;;;;5066360;28;20176;-52
2022/07/10 14:34:51;;;;;;;3.97;2.03;;;;;;;;;;5048556;28;20191;-50
2022/07/10 14:37:17;;;;;;;2.20;2.00;;;;;;;;;;5047441;28;20184;-50
2022/07/10 14:39:46;;;;;;;2.53;1.90;;;;;;;;;;5061138;28;20221;-54
2022/07/10 14:42:12;;;;;;;4.33;2.23;;;;;;;;;;5027905;28;20253;-51
2022/07/10 14:44:42;;;;;;;3.53;2.20;;;;;;;;;;5028510;28;20181;-51
2022/07/10 14:47:11;;;;;;;3.70;2.20;;;;;;;;;;5039662;28;20231;-50
2022/07/10 14:49:37;;;;;;;5.73;1.90;;;;;;;;;;5045125;28;20611;-51
2022/07/10 14:52:04;;;;;;;3.07;2.27;;;;;;;;;;5044999;28;20216;-51
2022/07/10 14:54:30;;;;;;;2.53;1.97;;;;;;;;;;5046449;28;20200;-50
2022/07/10 14:56:58;;;;;;;2.90;2.00;;;;;;;;;;5045613;28;20192;-51
2022/07/10 14:59:24;;;;;;;2.30;2.10;;;;;;;;;;5046424;28;20227;-51
2022/07/10 15:01:50;;;;;;;2.23;2.03;;;;;;;;;;5028029;28;20189;-51